createdAt,value
2022-10-18T00:01:01.264Z,99.70
2022-10-18T00:03:29.712Z,99.80
2022-10-18T00:05:59.670Z,99.80
2022-10-18T00:08:28.452Z,99.70
2022-10-18T00:10:56.522Z,99.80
2022-10-18T00:13:25.222Z,99.80
2022-10-18T00:15:57.046Z,99.90
2022-10-18T00:18:25.672Z,99.90
2022-10-18T00:21:03.311Z,99.90
2022-10-18T00:23:32.502Z,99.90
2022-10-18T00:26:05.381Z,99.70
2022-10-18T00:28:34.660Z,99.60
2022-10-18T00:31:14.828Z,99.50
2022-10-18T00:33:43.755Z,99.30
2022-10-18T00:36:14.249Z,99.30
2022-10-18T00:38:42.302Z,99.20
2022-10-18T00:41:14.453Z,99.20
2022-10-18T00:43:53.393Z,99.10
2022-10-18T00:46:21.737Z,99.10
2022-10-18T00:48:50.574Z,99.10
2022-10-18T00:51:21.722Z,99.10
2022-10-18T00:53:50.061Z,99.10
2022-10-18T00:56:18.938Z,99.20
2022-10-18T00:58:48.807Z,99.20
2022-10-18T01:01:17.141Z,99.20
2022-10-18T01:03:45.156Z,99.30
2022-10-18T01:06:13.341Z,99.30
2022-10-18T01:08:59.920Z,99.30
2022-10-18T01:11:46.828Z,99.30
2022-10-18T01:14:26.873Z,99.40
2022-10-18T01:17:00.145Z,99.50
2022-10-18T01:20:03.251Z,99.50
2022-10-18T01:22:37.694Z,99.40
2022-10-18T01:25:21.126Z,99.50
2022-10-18T01:27:56.560Z,99.60
2022-10-18T01:30:39.074Z,99.70
2022-10-18T01:33:22.923Z,99.60
2022-10-18T01:35:55.989Z,99.70
2022-10-18T01:38:26.497Z,99.70
2022-10-18T01:40:56.215Z,99.80
2022-10-18T01:43:27.543Z,99.90
2022-10-18T01:45:59.159Z,99.90
2022-10-18T01:48:27.842Z,99.90
2022-10-18T01:50:55.885Z,99.90
2022-10-18T01:53:30.682Z,99.90
2022-10-18T01:56:27.298Z,99.90
2022-10-18T01:59:08.636Z,99.90
2022-10-18T02:01:48.362Z,99.90
2022-10-18T02:04:24.934Z,99.90
2022-10-18T02:07:04.765Z,99.90
2022-10-18T02:09:39.424Z,99.90
2022-10-18T02:12:13.112Z,99.90
2022-10-18T02:14:43.055Z,99.90
2022-10-18T02:17:14.012Z,99.90
2022-10-18T02:19:45.035Z,99.90
2022-10-18T02:22:15.043Z,99.90
2022-10-18T02:24:47.315Z,99.90
2022-10-18T02:27:40.883Z,99.90
2022-10-18T02:30:10.895Z,99.90
2022-10-18T02:32:44.543Z,99.90
2022-10-18T02:35:19.019Z,99.90
2022-10-18T02:37:49.327Z,99.90
2022-10-18T02:40:18.328Z,99.90
2022-10-18T02:42:49.359Z,99.90
2022-10-18T02:45:18.120Z,99.90
2022-10-18T02:47:47.429Z,99.90
2022-10-18T02:50:15.579Z,99.90
2022-10-18T02:52:43.602Z,99.90
2022-10-18T02:55:11.859Z,99.90
2022-10-18T02:57:39.950Z,99.90
2022-10-18T03:00:09.433Z,99.90
2022-10-18T03:02:37.471Z,99.90
2022-10-18T03:05:07.212Z,99.90
2022-10-18T03:07:37.988Z,99.90
2022-10-18T03:10:06.936Z,99.90
2022-10-18T03:12:35.000Z,99.90
2022-10-18T03:15:03.083Z,99.90
2022-10-18T03:17:31.254Z,99.90
2022-10-18T03:19:59.439Z,99.90
2022-10-18T03:25:02.067Z,99.90
2022-10-18T03:27:30.290Z,99.90
2022-10-18T03:29:59.231Z,99.90
2022-10-18T03:32:27.298Z,99.90
2022-10-18T03:34:55.389Z,99.90
2022-10-18T03:37:23.493Z,99.90
2022-10-18T03:39:53.026Z,99.90
2022-10-18T03:42:21.017Z,99.90
2022-10-18T03:44:49.132Z,99.90
2022-10-18T03:47:17.240Z,99.90
2022-10-18T03:49:45.324Z,99.90
2022-10-18T03:52:13.387Z,99.90
2022-10-18T03:54:41.521Z,99.90
2022-10-18T03:57:10.877Z,99.90
2022-10-18T03:59:39.000Z,99.90
2022-10-18T04:02:07.194Z,99.90
2022-10-18T04:04:35.289Z,99.90
2022-10-18T04:07:03.947Z,99.90
2022-10-18T04:09:31.969Z,99.90
2022-10-18T04:11:59.969Z,99.90
2022-10-18T04:14:29.732Z,99.90
2022-10-18T04:16:57.927Z,99.90
2022-10-18T04:19:25.979Z,99.90
2022-10-18T04:21:54.448Z,99.90
2022-10-18T04:24:22.846Z,99.90
2022-10-18T04:26:50.972Z,99.90
2022-10-18T04:29:19.120Z,99.90
2022-10-18T04:31:48.628Z,99.90
2022-10-18T04:34:17.113Z,99.90
2022-10-18T04:36:45.206Z,99.90
2022-10-18T04:39:13.169Z,99.90
2022-10-18T04:41:41.407Z,99.90
2022-10-18T04:52:59.922Z,99.90
2022-10-18T04:55:28.315Z,99.90
2022-10-18T04:57:56.333Z,99.90
2022-10-18T05:00:24.440Z,99.90
2022-10-18T05:03:02.578Z,99.90
2022-10-18T05:05:49.745Z,99.90
2022-10-18T05:08:23.261Z,99.90
2022-10-18T05:11:16.386Z,99.90
2022-10-18T05:13:47.177Z,99.90
2022-10-18T05:16:18.110Z,99.90
2022-10-18T05:18:46.275Z,99.90
2022-10-18T05:21:14.434Z,99.90
2022-10-18T05:23:43.967Z,99.90
2022-10-18T05:26:12.022Z,99.90
2022-10-18T05:28:41.071Z,99.90
2022-10-18T05:31:11.603Z,99.90
2022-10-18T05:33:39.972Z,99.90
2022-10-18T05:36:08.894Z,99.90
2022-10-18T05:38:40.176Z,99.90
2022-10-18T05:41:09.918Z,99.90
2022-10-18T05:43:38.085Z,99.90
2022-10-18T05:46:11.881Z,99.90
2022-10-18T05:48:43.365Z,99.90
2022-10-18T05:51:11.505Z,99.90
2022-10-18T05:53:39.585Z,99.90
2022-10-18T05:56:11.731Z,99.90
2022-10-18T05:58:40.612Z,99.90
2022-10-18T06:01:09.836Z,99.90
2022-10-18T06:03:38.026Z,99.90
2022-10-18T06:06:08.458Z,99.90
2022-10-18T06:08:37.483Z,99.90
2022-10-18T06:11:09.948Z,99.90
2022-10-18T06:13:42.085Z,99.90
2022-10-18T06:16:10.874Z,99.90
2022-10-18T06:18:39.174Z,99.90
2022-10-18T06:21:08.049Z,99.90
2022-10-18T06:23:36.540Z,99.90
2022-10-18T06:26:06.956Z,99.90
2022-10-18T06:28:37.434Z,99.90
2022-10-18T06:31:06.540Z,99.90
2022-10-18T06:33:36.091Z,99.90
2022-10-18T06:36:06.768Z,99.90
2022-10-18T06:38:35.959Z,99.90
2022-10-18T06:41:04.878Z,99.90
2022-10-18T06:43:33.064Z,99.90
2022-10-18T06:46:05.131Z,99.90
2022-10-18T06:48:33.741Z,99.90
2022-10-18T06:51:03.418Z,99.90
2022-10-18T06:53:32.611Z,99.90
2022-10-18T06:56:01.763Z,99.90
2022-10-18T06:58:29.861Z,99.90
2022-10-18T07:00:58.721Z,99.90
2022-10-18T07:03:28.097Z,99.90
2022-10-18T07:06:01.121Z,99.90
2022-10-18T07:08:29.624Z,99.90
2022-10-18T07:10:57.719Z,99.90
2022-10-18T07:13:32.484Z,99.90
2022-10-18T07:16:06.332Z,99.90
2022-10-18T07:18:42.594Z,99.90
2022-10-18T07:21:12.894Z,99.90
2022-10-18T07:23:42.763Z,99.80
2022-10-18T07:26:15.219Z,99.50
2022-10-18T07:28:43.560Z,99.60
2022-10-18T07:31:12.308Z,99.70
2022-10-18T07:33:42.948Z,99.60
2022-10-18T07:36:12.701Z,99.70
2022-10-18T07:38:41.491Z,99.70
2022-10-18T07:41:11.947Z,99.40
2022-10-18T07:43:43.202Z,99.50
2022-10-18T07:46:11.513Z,99.60
2022-10-18T07:48:41.100Z,99.70
2022-10-18T07:51:10.259Z,99.70
2022-10-18T07:53:38.816Z,99.60
2022-10-18T07:56:11.567Z,99.60
2022-10-18T07:58:39.740Z,99.60
2022-10-18T08:01:09.808Z,99.50
2022-10-18T08:03:39.244Z,99.10
2022-10-18T08:06:10.920Z,99.00
2022-10-18T08:08:40.375Z,98.90
2022-10-18T08:11:10.041Z,98.60
2022-10-18T08:13:38.348Z,98.70
2022-10-18T08:16:08.653Z,98.60
2022-10-18T08:18:37.565Z,98.60
2022-10-18T08:21:09.729Z,98.70
2022-10-18T08:23:38.415Z,98.70
2022-10-18T08:26:09.193Z,98.50
2022-10-18T08:28:37.601Z,98.30
2022-10-18T08:31:06.896Z,98.30
2022-10-18T08:33:35.879Z,98.10
2022-10-18T08:36:06.756Z,98.00
2022-10-18T08:38:37.644Z,98.00
2022-10-18T08:41:38.472Z,97.90
2022-10-18T08:44:12.163Z,97.80
2022-10-18T08:46:45.262Z,97.60
2022-10-18T08:49:21.958Z,97.40
2022-10-18T08:51:52.114Z,97.30
2022-10-18T08:54:26.851Z,97.00
2022-10-18T08:57:00.871Z,96.80
2022-10-18T08:59:35.341Z,96.90
2022-10-18T09:02:16.717Z,96.80
2022-10-18T09:04:53.453Z,96.80
2022-10-18T09:08:09.434Z,96.70
2022-10-18T09:10:46.291Z,96.60
2022-10-18T09:13:36.316Z,96.80
2022-10-18T09:16:06.204Z,96.70
2022-10-18T09:18:53.127Z,96.60
2022-10-18T09:21:24.914Z,96.70
2022-10-18T09:24:09.555Z,96.70
2022-10-18T09:26:45.338Z,96.60
2022-10-18T09:29:31.265Z,96.80
2022-10-18T09:32:07.561Z,96.70
2022-10-18T09:34:41.154Z,96.60
2022-10-18T09:37:14.488Z,96.80
2022-10-18T09:39:43.255Z,96.40
2022-10-18T09:42:19.373Z,96.60
2022-10-18T09:44:52.624Z,96.30
2022-10-18T09:47:25.725Z,96.10
2022-10-18T09:49:58.446Z,96.10
2022-10-18T09:52:29.647Z,96.20
2022-10-18T09:55:02.261Z,96.30
2022-10-18T09:57:36.750Z,96.50
2022-10-18T10:00:07.847Z,96.70
2022-10-18T10:02:38.251Z,96.50
2022-10-18T10:07:48.642Z,96.40
2022-10-18T10:10:21.942Z,96.00
2022-10-18T10:13:05.751Z,95.90
2022-10-18T10:15:38.263Z,95.50
2022-10-18T10:18:23.210Z,95.40
2022-10-18T10:20:54.310Z,95.30
2022-10-18T10:23:26.110Z,94.00
2022-10-18T10:25:56.003Z,94.20
2022-10-18T10:28:29.671Z,93.10
2022-10-18T10:31:18.621Z,93.00
2022-10-18T10:33:48.395Z,93.90
2022-10-18T10:36:21.082Z,93.90
2022-10-18T10:39:05.110Z,93.60
2022-10-18T10:41:33.621Z,94.40
2022-10-18T10:44:05.278Z,94.10
2022-10-18T10:46:37.685Z,94.20
2022-10-18T10:52:08.259Z,94.60
2022-10-18T10:54:39.044Z,94.70
2022-10-18T10:57:17.790Z,94.60
2022-10-18T10:59:50.714Z,94.70
2022-10-18T11:02:22.556Z,95.10
2022-10-18T11:04:52.567Z,95.20
2022-10-18T11:07:29.004Z,95.00
2022-10-18T11:10:04.538Z,95.00
2022-10-18T11:12:35.459Z,94.90
2022-10-18T11:15:22.103Z,94.90
2022-10-18T11:18:03.440Z,95.00
2022-10-18T11:20:36.243Z,95.20
2022-10-18T11:23:07.426Z,94.90
2022-10-18T11:25:51.594Z,94.80
2022-10-18T11:28:29.679Z,94.60
2022-10-18T11:31:13.157Z,94.40
2022-10-18T11:34:09.594Z,93.80
2022-10-18T11:36:54.707Z,94.20
2022-10-18T11:39:42.737Z,94.10
2022-10-18T11:42:19.015Z,94.10
2022-10-18T11:44:56.993Z,93.90
2022-10-18T11:47:34.493Z,93.70
2022-10-18T11:50:20.375Z,93.70
2022-10-18T11:52:57.470Z,93.40
2022-10-18T11:55:37.187Z,93.10
2022-10-18T11:58:18.454Z,93.20
2022-10-18T12:00:50.009Z,93.10
2022-10-18T12:03:38.593Z,92.80
2022-10-18T12:06:13.615Z,93.00
2022-10-18T12:08:45.287Z,92.70
2022-10-18T12:11:17.881Z,92.50
2022-10-18T12:13:50.113Z,92.50
2022-10-18T12:16:38.068Z,92.30
2022-10-18T12:19:22.056Z,92.10
2022-10-18T12:21:54.962Z,91.30
2022-10-18T12:24:26.059Z,91.20
2022-10-18T12:26:59.791Z,91.40
2022-10-18T12:29:33.893Z,91.70
2022-10-18T12:32:06.834Z,91.80
2022-10-18T12:34:43.052Z,91.70
2022-10-18T12:37:40.840Z,91.00
2022-10-18T12:40:18.493Z,91.00
2022-10-18T12:42:51.679Z,90.90
2022-10-18T12:45:26.174Z,90.80
2022-10-18T12:47:54.568Z,91.20
2022-10-18T12:50:31.109Z,90.90
2022-10-18T12:53:13.582Z,90.70
2022-10-18T12:58:29.416Z,89.80
2022-10-18T13:01:08.533Z,89.90
2022-10-18T13:03:44.118Z,90.20
2022-10-18T13:06:13.797Z,88.90
2022-10-18T13:08:46.147Z,86.60
2022-10-18T13:11:36.826Z,87.30
2022-10-18T13:14:53.570Z,85.10
2022-10-18T13:17:40.464Z,85.80
2022-10-18T13:20:25.926Z,85.40
2022-10-18T13:23:09.023Z,86.30
2022-10-18T13:25:50.621Z,85.90
2022-10-18T13:28:27.472Z,85.20
2022-10-18T13:30:59.658Z,83.40
2022-10-18T13:33:33.208Z,83.30
2022-10-18T13:36:02.895Z,81.10
2022-10-18T13:38:48.471Z,79.00
2022-10-18T13:41:19.614Z,78.90
2022-10-18T13:43:59.791Z,78.90
2022-10-18T13:47:01.339Z,78.20
2022-10-18T13:49:44.661Z,77.50
2022-10-18T13:52:19.629Z,76.40
2022-10-18T13:55:16.806Z,74.90
2022-10-18T13:57:59.496Z,74.30
2022-10-18T14:00:48.265Z,72.80
2022-10-18T14:04:02.226Z,73.70
2022-10-18T14:07:02.208Z,74.40
2022-10-18T14:09:52.468Z,73.70
2022-10-18T14:12:30.334Z,73.80
2022-10-18T14:15:06.234Z,73.40
2022-10-18T14:17:40.982Z,72.90
2022-10-18T14:20:22.997Z,72.40
2022-10-18T14:22:58.448Z,71.20
2022-10-18T14:25:29.534Z,72.10
2022-10-18T14:28:13.991Z,70.50
2022-10-18T14:31:02.015Z,70.10
2022-10-18T14:33:34.386Z,70.50
2022-10-18T14:36:11.569Z,70.30
2022-10-18T14:38:52.187Z,71.00
2022-10-18T14:41:23.689Z,71.30
2022-10-18T14:43:54.953Z,72.40
2022-10-18T14:46:28.989Z,72.50
2022-10-18T14:49:00.755Z,72.30
2022-10-18T14:51:32.912Z,72.00
2022-10-18T14:54:01.798Z,72.80
2022-10-18T14:56:31.852Z,73.20
2022-10-18T14:59:03.826Z,73.50
2022-10-18T15:01:36.241Z,73.60
2022-10-18T15:04:09.342Z,74.40
2022-10-18T15:06:37.368Z,74.00
2022-10-18T15:09:06.599Z,73.90
2022-10-18T15:11:34.941Z,74.10
2022-10-18T15:14:08.234Z,74.20
2022-10-18T15:16:39.412Z,73.80
2022-10-18T15:19:09.200Z,74.30
2022-10-18T15:21:37.695Z,74.60
2022-10-18T15:24:23.119Z,74.90
2022-10-18T15:26:52.801Z,76.00
2022-10-18T15:29:24.801Z,75.40
2022-10-18T15:31:53.539Z,75.90
2022-10-18T15:34:24.421Z,75.80
2022-10-18T15:36:54.639Z,76.00
2022-10-18T15:39:25.050Z,76.50
2022-10-18T15:41:54.597Z,76.60
2022-10-18T15:44:28.132Z,76.50
2022-10-18T15:46:59.103Z,77.10
2022-10-18T15:49:58.274Z,78.30
2022-10-18T15:52:38.173Z,80.10
2022-10-18T15:55:44.646Z,80.30
2022-10-18T15:58:17.284Z,81.00
2022-10-18T16:00:48.030Z,81.50
2022-10-18T16:03:17.313Z,82.00
2022-10-18T16:05:45.668Z,84.00
2022-10-18T16:08:23.024Z,85.70
2022-10-18T16:10:51.765Z,88.10
2022-10-18T16:13:20.062Z,90.70
2022-10-18T16:15:49.434Z,91.00
2022-10-18T16:18:20.200Z,91.80
2022-10-18T16:20:49.370Z,92.50
2022-10-18T16:23:19.484Z,92.70
2022-10-18T16:25:48.224Z,92.90
2022-10-18T16:28:18.543Z,93.30
2022-10-18T16:30:53.795Z,93.70
2022-10-18T16:33:21.926Z,94.60
2022-10-18T16:35:50.400Z,94.40
2022-10-18T16:38:25.351Z,94.50
2022-10-18T16:40:53.788Z,94.90
2022-10-18T16:43:21.843Z,94.90
2022-10-18T16:45:52.736Z,95.30
2022-10-18T16:48:23.394Z,95.20
2022-10-18T16:50:52.067Z,95.50
2022-10-18T16:53:23.411Z,95.20
2022-10-18T16:55:54.882Z,94.80
2022-10-18T17:00:58.456Z,95.00
2022-10-18T17:03:27.055Z,95.60
2022-10-18T17:05:56.343Z,95.50
2022-10-18T17:08:27.535Z,95.80
2022-10-18T17:10:58.071Z,95.70
2022-10-18T17:13:27.482Z,95.90
2022-10-18T17:15:59.258Z,95.90
2022-10-18T17:18:27.599Z,95.70
2022-10-18T17:20:56.550Z,95.50
2022-10-18T17:23:24.814Z,95.80
2022-10-18T17:26:05.308Z,96.20
2022-10-18T17:28:35.464Z,96.20
2022-10-18T17:31:09.557Z,96.40
2022-10-18T17:33:38.093Z,96.50
2022-10-18T17:36:06.321Z,96.40
2022-10-18T17:38:34.392Z,96.40
2022-10-18T17:41:07.651Z,96.50
2022-10-18T17:43:37.482Z,96.40
2022-10-18T17:46:08.211Z,96.60
2022-10-18T17:48:36.665Z,96.80
2022-10-18T17:51:08.762Z,96.80
2022-10-18T17:53:36.907Z,96.70
2022-10-18T17:56:06.149Z,96.90
2022-10-18T17:58:34.459Z,97.10
2022-10-18T18:01:11.501Z,97.30
2022-10-18T18:03:40.279Z,97.50
2022-10-18T18:06:16.184Z,97.20
2022-10-18T18:08:44.815Z,97.40
2022-10-18T18:11:12.922Z,97.30
2022-10-18T18:13:41.252Z,97.30
2022-10-18T18:16:16.112Z,97.20
2022-10-18T18:18:45.383Z,97.40
2022-10-18T18:21:15.343Z,97.20
2022-10-18T18:23:43.816Z,97.50
2022-10-18T18:26:11.968Z,97.40
2022-10-18T18:28:40.137Z,97.40
2022-10-18T18:31:09.597Z,97.40
2022-10-18T18:33:39.544Z,97.50
2022-10-18T18:36:08.609Z,97.50
2022-10-18T18:38:38.562Z,97.30
2022-10-18T18:41:08.857Z,97.30
2022-10-18T18:43:37.953Z,97.30
2022-10-18T18:46:06.219Z,97.50
2022-10-18T18:48:35.333Z,97.60
2022-10-18T18:51:07.223Z,97.90
2022-10-18T18:53:35.348Z,98.20
2022-10-18T18:56:05.431Z,98.20
2022-10-18T18:58:35.813Z,98.40
2022-10-18T19:01:08.282Z,98.60
2022-10-18T19:03:38.337Z,98.70
2022-10-18T19:06:11.070Z,98.70
2022-10-18T19:08:40.265Z,98.90
2022-10-18T19:11:09.524Z,98.90
2022-10-18T19:13:37.937Z,99.00
2022-10-18T19:16:20.221Z,99.00
2022-10-18T19:19:00.244Z,99.00
2022-10-18T19:21:31.633Z,98.90
2022-10-18T19:24:00.152Z,98.90
2022-10-18T19:26:34.492Z,98.90
2022-10-18T19:29:05.878Z,98.70
2022-10-18T19:31:35.226Z,98.70
2022-10-18T19:34:06.242Z,98.90
2022-10-18T19:36:36.157Z,98.70
2022-10-18T19:39:05.512Z,98.70
2022-10-18T19:41:33.608Z,98.90
2022-10-18T19:44:01.840Z,99.00
2022-10-18T19:46:30.219Z,99.00
2022-10-18T19:48:58.622Z,99.00
2022-10-18T19:51:28.335Z,98.70
2022-10-18T19:53:58.474Z,98.70
2022-10-18T19:56:28.225Z,98.70
2022-10-18T19:58:57.682Z,98.80
2022-10-18T20:01:26.679Z,98.80
2022-10-18T20:03:55.327Z,99.00
2022-10-18T20:06:23.362Z,99.10
2022-10-18T20:08:51.803Z,99.10
2022-10-18T20:11:23.611Z,99.20
2022-10-18T20:13:52.266Z,99.30
2022-10-18T20:16:27.738Z,99.30
2022-10-18T20:18:57.679Z,99.00
2022-10-18T20:21:26.105Z,98.90
2022-10-18T20:23:54.558Z,99.00
2022-10-18T20:26:25.499Z,98.90
2022-10-18T20:28:56.884Z,99.00
2022-10-18T20:31:26.337Z,99.00
2022-10-18T20:33:59.058Z,99.00
2022-10-18T20:36:28.094Z,99.10
2022-10-18T20:38:56.649Z,99.00
2022-10-18T20:41:27.861Z,99.10
2022-10-18T20:43:57.883Z,99.20
2022-10-18T20:46:26.797Z,99.40
2022-10-18T20:48:55.548Z,99.40
2022-10-18T20:51:24.015Z,99.60
2022-10-18T20:53:53.573Z,99.70
2022-10-18T20:56:23.979Z,99.70
2022-10-18T20:58:55.945Z,99.70
2022-10-18T21:01:25.833Z,99.80
2022-10-18T21:03:56.582Z,99.60
2022-10-18T21:06:26.191Z,99.90
2022-10-18T21:08:55.787Z,99.90
2022-10-18T21:11:23.900Z,99.90
2022-10-18T21:13:54.457Z,99.90
2022-10-18T21:16:23.080Z,99.90
2022-10-18T21:18:51.125Z,99.90
2022-10-18T21:21:21.260Z,99.90
2022-10-18T21:23:49.623Z,99.90
2022-10-18T21:26:20.188Z,99.90
2022-10-18T21:28:50.346Z,99.90
2022-10-18T21:31:21.982Z,99.90
2022-10-18T21:33:54.683Z,99.90
2022-10-18T21:36:23.534Z,99.90
2022-10-18T21:38:52.118Z,99.90
2022-10-18T21:41:22.093Z,99.90
2022-10-18T21:44:16.460Z,99.90
2022-10-18T21:46:47.049Z,99.90
2022-10-18T21:49:16.094Z,99.90
2022-10-18T21:51:44.194Z,99.90
2022-10-18T21:54:14.220Z,99.90
2022-10-18T21:56:42.932Z,99.90
2022-10-18T21:59:12.268Z,99.90
2022-10-18T22:01:40.867Z,99.90
2022-10-18T22:04:20.297Z,99.90
2022-10-18T22:06:48.507Z,99.90
2022-10-18T22:09:17.123Z,99.90
2022-10-18T22:11:47.419Z,99.90
2022-10-18T22:14:15.489Z,99.90
2022-10-18T22:16:43.546Z,99.90
2022-10-18T22:19:13.015Z,99.90
2022-10-18T22:21:41.102Z,99.90
2022-10-18T22:24:10.495Z,99.90
2022-10-18T22:26:40.728Z,99.90
2022-10-18T22:29:11.159Z,99.90
2022-10-18T22:31:41.136Z,99.90
2022-10-18T22:34:11.978Z,99.90
2022-10-18T22:36:41.605Z,99.90
2022-10-18T22:39:10.507Z,99.90
2022-10-18T22:41:38.865Z,99.90
2022-10-18T22:44:08.082Z,99.90
2022-10-18T22:46:36.581Z,99.90
2022-10-18T22:49:04.949Z,99.90
2022-10-18T22:51:33.108Z,99.90
2022-10-18T22:54:02.391Z,99.90
2022-10-18T22:56:30.530Z,99.90
2022-10-18T22:58:58.597Z,99.90
2022-10-18T23:01:32.755Z,99.90
2022-10-18T23:06:54.372Z,99.90
2022-10-18T23:09:23.737Z,99.90
2022-10-18T23:11:52.921Z,99.90
2022-10-18T23:14:21.165Z,99.90
2022-10-18T23:16:49.135Z,99.90
2022-10-18T23:19:17.396Z,99.90
2022-10-18T23:21:45.428Z,99.90
2022-10-18T23:24:13.480Z,99.90
2022-10-18T23:26:42.893Z,99.90
2022-10-18T23:29:11.034Z,99.90
2022-10-18T23:31:39.822Z,99.90
2022-10-18T23:34:07.799Z,99.90
2022-10-18T23:36:36.012Z,99.90
2022-10-18T23:39:05.029Z,99.90
2022-10-18T23:41:33.289Z,99.90
2022-10-18T23:44:02.745Z,99.90
2022-10-18T23:46:31.415Z,99.90
2022-10-18T23:48:59.443Z,99.90
2022-10-18T23:51:27.579Z,99.90
2022-10-18T23:53:55.595Z,99.90
2022-10-18T23:56:23.693Z,99.90
2022-10-18T23:58:51.751Z,99.90
